• Join FlightAware (Why Join?)
  • Login
  • US Flag 
09:21PM EDT


 

Airport Tracker/Info


-or-


 

Live Flight TrackerFlight Track Log ✈ AAL963 ✈ 26-Sep-2013 ✈ KDFW - SBGR / GRU

Flight Track Log - Related Links

Times and Time Zones

All times are in EDT time to prevent confusion due to time zone crossing. See the AAL963 flight status page for this flight to view local times or setup timezone preferences in your user account.

Time Position Orientation Groundspeed Altitude Reporting Facility
EDT Latitude Longitude Course Direction KTS MPH feet Rate Location/Type
09:12PM 32.8130 -97.0320 180° South 315 362 3,000  Level FlightAware
09:12PM 32.7860 -97.0320 180° South 292 336 4,000 2,280 Climbing FlightAware
09:12PM 32.7660 -97.0320 180° South 206 237 4,700 2,220 Climbing FlightAware
09:13PM 32.7440 -97.0320 180° South 201 231 5,500 2,160 Climbing FlightAware
09:13PM 32.7120 -97.0310 178° South 361 415 6,300 2,160 Climbing FlightAware
09:13PM 32.6990 -97.0270 165° South 208 239 6,800 1,920 Climbing FlightAware
09:14PM 32.6720 -97.0130 156° South 264 304 7,500 1,620 Climbing FlightAware
09:14PM 32.6490 -97.0000 155° Southeast 360 414 8,000 1,860 Climbing FlightAware
09:14PM 32.6220 -96.9870 158° South 283 326 8,800 1,680 Climbing FlightAware
09:15PM 32.5990 -96.9750 156° South 221 254 9,200 1,620 Climbing FlightAware
09:15PM 32.5730 -96.9620 157° South 249 287 9,900 1,800 Climbing FlightAware
09:16PM 32.5270 -96.9390 157° South 249 287 10,900 1,320 Climbing FlightAware
09:16PM 32.4760 -96.9130 157° South 403 464 11,500 960 Climbing FlightAware
09:17PM 32.4210 -96.8860 157° South 417 480 12,100 1,380 Climbing FlightAware
09:17PM 32.3680 -96.8590 157° South 336 387 13,100 1,920 Climbing FlightAware
09:18PM 32.3070 -96.8290 157° South 451 519 14,300 1,860 Climbing FlightAware
09:18PM 32.2430 -96.8020 160° South 620 713 15,400 2,220 Climbing FlightAware
09:19PM 32.1850 -96.7800 162° South 346 398 16,900 1,980 Climbing FlightAware
09:20PM 32.1230 -96.7570 163° South 356 410 17,700 1,680 Climbing FlightAware
09:20PM 32.0640 -96.7340 162° South 360 414 18,800 2,100 Climbing FlightAware
09:21PM 31.9940 -96.7080 163° South 356 410 20,200 1,740 Climbing FlightAware
09:21PM 31.9290 -96.6840 163° South 301 346 21,000 1,380 Climbing FlightAware
09:22PM 31.8590 -96.6570 162° South 538 619 21,900 1,440 Climbing FlightAware
09:23PM 31.7920 -96.6300 161° South 390 449 22,700 1,440 Climbing FlightAware
09:23PM 31.7210 -96.6000 160° South 509 586 23,600 1,500 Climbing FlightAware
09:24PM 31.6460 -96.5700 161° South 557 641 24,500 1,380 Climbing FlightAware
09:24PM 31.5820 -96.5440 161° South 427 491 25,200 1,380 Climbing FlightAware
09:25PM 31.5040 -96.5130 161° South 572 658 26,100 1,320 Climbing FlightAware
09:25PM 31.4280 -96.4850 163° South 679 781 26,800 1,140 Climbing FlightAware
09:26PM 31.3600 -96.4600 163° South 419 482 27,400 1,140 Climbing FlightAware
09:27PM 31.2570 -96.4220 162° South 510 587 28,400 1,140 Climbing FlightAware
09:27PM 31.2130 -96.4050 162° South 717 825 28,700 840 Climbing FlightAware
09:28PM 31.1530 -96.3590 147° Southeast 515 593 29,100 720 Climbing FlightAware
09:28PM 31.1390 -96.3420 134° Southeast 551 634 29,200 1,080 Climbing FlightAware
09:28PM 31.0870 -96.2610 127° Southeast 656 755 29,900 1,200 Climbing FlightAware
09:29PM 31.0380 -96.1800 125° Southeast 597 687 30,700 1,320 Climbing FlightAware
09:30PM 30.9660 -96.0630 126° Southeast 547 629 31,900 1,380 Climbing FlightAware
09:30PM 30.9150 -95.9810 126° Southeast 505 581 32,800 600 Climbing FlightAware
09:32PM 30.8260 -95.8370 126° Southeast 525 604 33,000 60 Climbing FlightAware
09:32PM 30.7710 -95.7490 126° Southeast 637 733 33,000  Level FlightAware
09:33PM 30.7210 -95.6700 126° Southeast 425 489 33,000  Level FlightAware
09:34PM 30.6340 -95.5320 126° Southeast 556 640 33,000  Level FlightAware
09:34PM 30.5890 -95.4590 126° Southeast 444 511 33,000  Level FlightAware
09:35PM 30.5360 -95.3800 128° Southeast 481 554 33,000  Level FlightAware
09:36PM 30.4770 -95.3100 134° Southeast 447 514 33,000  Level FlightAware
09:36PM 30.4130 -95.2430 138° Southeast 572 658 33,000  Level FlightAware
09:37PM 30.3550 -95.1830 138° Southeast 409 471 33,000  Level FlightAware
09:37PM 30.2930 -95.1170 137° Southeast 418 481 33,000  Level FlightAware
09:38PM 30.2280 -95.0490 138° Southeast 532 612 33,000  Level FlightAware
09:39PM 30.1624 -94.9799 138° Southeast 499 574 33,000  Level FlightAware ADS-B
09:39PM 30.1092 -94.9239 138° Southeast 500 575 33,000  Level FlightAware ADS-B
09:40PM 30.0560 -94.8683 138° Southeast 499 574 33,000  Level FlightAware ADS-B
09:40PM 29.9820 -94.7910 138° Southeast 600 690 33,000  Level FlightAware
09:41PM 29.9220 -94.7290 138° Southeast 448 516 33,000  Level FlightAware
09:41PM 29.8610 -94.6650 138° Southeast 541 623 33,000  Level FlightAware
09:42PM 29.8129 -94.6149 138° Southeast 499 574 33,000  Level FlightAware ADS-B
09:43PM 29.7360 -94.5350 138° Southeast 664 764 33,000  Level FlightAware
09:43PM 29.6771 -94.4741 138° Southeast 498 573 33,000  Level FlightAware ADS-B
09:44PM 29.6180 -94.4130 138° Southeast 391 450 33,000  Level FlightAware
09:44PM 29.5570 -94.3500 138° Southeast 501 577 33,000  Level FlightAware
09:45PM 29.4930 -94.2840 138° Southeast 686 789 33,000  Level FlightAware
09:46PM 29.4261 -94.2056 138° Southeast 510 587 33,000  Level Houston Center
09:47PM 29.3236 -94.0967 137° Southeast 507 583 33,000 -480 Level Houston Center
09:48PM 29.2197 -93.9903 138° Southeast 503 579 32,100 -1,020 Descending Houston Center
09:49PM 29.1131 -93.8842 139° Southeast 503 579 31,000 -540 Descending Houston Center
09:50PM 29.0108 -93.7836 139° Southeast 497 572 31,000  Level Houston Center
09:51PM 28.9078 -93.6803 139° Southeast 494 568 31,000  Level Houston Center
09:52PM 28.8022 -93.5658 136° Southeast 508 585 31,000  Level Houston Center
09:53PM 28.6792 -93.4419 139° Southeast 503 579 31,000  Level Houston Center
09:54PM 28.5744 -93.3333 138° Southeast 500 575 31,000  Level Houston Center
09:55PM 28.4700 -93.2303 139° Southeast 498 573 31,000  Level Houston Center
09:56PM 28.3694 -93.1278 138° Southeast 500 575 31,000 -60 Level Houston Center
09:57PM 28.2653 -93.0236 139° Southeast 500 575 30,900  Descending Houston Center
09:58PM 28.1625 -92.9189 138° Southeast 497 572 31,000  Climbing Houston Center
09:59PM 28.0581 -92.8161 139° Southeast 498 573 30,900  Descending Houston Center
10:00PM 27.9531 -92.7139 139° Southeast 498 573 31,000  Climbing Houston Center
10:01PM 27.8486 -92.6128 139° Southeast 496 571 30,900  Descending Houston Center
10:02PM 27.7458 -92.5086 138° Southeast 496 571 31,000  Climbing Houston Center
10:03PM 27.6217 -92.3850 139° Southeast 494 568 30,900  Descending Houston Center
10:04PM 27.5181 -92.2842 139° Southeast 494 568 31,000  Climbing Houston Center
10:05PM 27.4144 -92.1836 139° Southeast 492 566 30,900  Descending Houston Center
10:06PM 27.3047 -92.0769 139° Southeast 491 565 31,000  Climbing Houston Center
10:08PM 27.1618 -91.9295 144° Southeast  Level FlightAware Approximate
10:15PM 26.3896 -91.3146 144° Southeast  Level FlightAware Approximate
10:16PM 26.2788 -91.2279 145° Southeast  Level FlightAware Approximate
10:17PM 26.1677 -91.1417 145° Southeast  Level FlightAware Approximate
10:18PM 26.0566 -91.0556 145° Southeast  Level FlightAware Approximate
10:19PM 25.9454 -90.9697 145° Southeast  Level FlightAware Approximate
10:20PM 25.8342 -90.8840 145° Southeast  Level FlightAware Approximate
10:21PM 25.7244 -90.7961 144° Southeast  Level FlightAware Approximate
10:22PM 25.6141 -90.7090 145° Southeast  Level FlightAware Approximate
10:23PM 25.5034 -90.6227 145° Southeast  Level FlightAware Approximate
10:24PM 25.3926 -90.5366 145° Southeast  Level FlightAware Approximate
10:25PM 25.2817 -90.4507 145° Southeast  Level FlightAware Approximate
10:26PM 25.1709 -90.3649 145° Southeast  Level FlightAware Approximate
10:27PM 25.0599 -90.2793 145° Southeast  Level FlightAware Approximate
10:28PM 24.9489 -90.1938 145° Southeast  Level FlightAware Approximate
10:29PM 24.8379 -90.1085 145° Southeast  Level FlightAware Approximate
10:30PM 24.7268 -90.0233 145° Southeast  Level FlightAware Approximate
10:31PM 24.6157 -89.9383 145° Southeast  Level FlightAware Approximate
10:32PM 24.5045 -89.8534 145° Southeast  Level FlightAware Approximate
10:33PM 24.3964 -89.7696 146° Southeast  Level FlightAware Approximate
10:34PM 24.2861 -89.6889 146° Southeast  Level FlightAware Approximate
10:35PM 24.1758 -89.6083 146° Southeast  Level FlightAware Approximate
10:36PM 24.0654 -89.5279 146° Southeast  Level FlightAware Approximate
10:36PM 24.0050 -89.4780 146° Southeast 31,000  Level FlightAware
10:37PM 23.8640 -89.3720 145° Southeast 31,000  Level FlightAware
10:38PM 23.7640 -89.2970 146° Southeast 586 674 31,000  Level FlightAware
10:39PM 23.6920 -89.2430 146° Southeast 678 780 31,000  Level FlightAware
10:39PM 23.6200 -89.1890 146° Southeast 826 951 31,000  Level FlightAware
10:40PM 23.5610 -89.1450 146° Southeast 544 626 31,000  Level FlightAware
10:40PM 23.4990 -89.0990 146° Southeast 280 322 31,000  Level FlightAware
10:41PM 23.4180 -89.0380 145° Southeast 638 734 31,000  Level FlightAware
10:42PM 23.3650 -88.9990 146° Southeast 351 404 31,000  Level FlightAware
10:42PM 23.3040 -88.9530 145° Southeast 428 493 31,000  Level FlightAware
10:43PM 23.2130 -88.8860 146° Southeast 560 644 31,000  Level FlightAware
10:43PM 23.1020 -88.8030 145° Southeast 852 980 31,000  Level FlightAware
10:45PM 23.0020 -88.7300 146° Southeast 309 356 31,000  Level FlightAware
10:46PM 22.9160 -88.6660 146° Southeast 312 359 31,000  Level FlightAware
10:46PM 22.8360 -88.6080 146° Southeast 522 601 31,000  Level FlightAware
10:47PM 22.7670 -88.5570 146° Southeast 355 409 31,000  Level FlightAware
10:47PM 22.6940 -88.5040 146° Southeast 498 573 31,000  Level FlightAware
10:48PM 22.5920 -88.4230 144° Southeast 402 463 31,000  Level FlightAware
10:49PM 22.5310 -88.3630 138° Southeast 494 568 31,000  Level FlightAware
10:49PM 22.4890 -88.3210 137° Southeast 295 339 31,000  Level FlightAware
10:50PM 22.4250 -88.2560 137° Southeast 569 655 31,000  Level FlightAware
10:50PM 22.3650 -88.1950 137° Southeast 316 364 31,000  Level FlightAware
10:51PM 22.3130 -88.1430 137° Southeast 358 412 31,000  Level FlightAware
10:52PM 22.2390 -88.0680 137° Southeast 557 641 31,000  Level FlightAware
10:52PM 22.1800 -88.0080 137° Southeast 558 642 31,000  Level FlightAware
10:53PM 22.1120 -87.9390 137° Southeast 368 423 31,000  Level FlightAware
10:53PM 22.0540 -87.8810 137° Southeast 506 582 31,000  Level FlightAware
10:54PM 21.9880 -87.8140 137° Southeast 727 837 31,000  Level FlightAware
10:55PM 21.9370 -87.7630 137° Southeast 359 413 31,000  Level FlightAware
10:55PM 21.8820 -87.7080 137° Southeast 276 318 31,000  Level FlightAware
10:56PM 21.8150 -87.6410 137° Southeast 528 608 31,000  Level FlightAware
10:56PM 21.7480 -87.5750 138° Southeast 690 794 31,000  Level FlightAware
10:57PM 21.6850 -87.5120 137° Southeast 450 518 31,000  Level FlightAware
10:58PM 21.6230 -87.4510 138° Southeast 560 644 31,000  Level FlightAware
10:58PM 21.5710 -87.3980 137° Southeast 384 442 31,000  Level FlightAware
10:59PM 21.5060 -87.3350 138° Southeast 486 559 31,000  Level FlightAware
10:59PM 21.4440 -87.2730 137° Southeast 637 733 31,000  Level FlightAware
11:00PM 21.3830 -87.2140 138° Southeast 672 773 31,000  Level FlightAware
11:01PM 21.3230 -87.1530 137° Southeast 560 644 31,000  Level FlightAware
11:01PM 21.2670 -87.0990 138° Southeast 465 535 31,000  Level FlightAware
11:02PM 21.2070 -87.0400 137° Southeast 434 499 31,000  Level FlightAware
11:02PM 21.1460 -86.9800 137° Southeast 627 722 31,000  Level FlightAware
11:03PM 21.0840 -86.9190 137° Southeast 528 608 31,000  Level FlightAware
11:03PM 21.0230 -86.8590 137° Southeast 533 613 31,000  Level FlightAware
11:04PM 20.9690 -86.8060 137° Southeast 402 463 31,000  Level FlightAware
11:05PM 20.9070 -86.7460 138° Southeast 435 501 31,000  Level FlightAware
11:05PM 20.8510 -86.6920 138° Southeast 426 490 31,000  Level FlightAware
11:06PM 20.7910 -86.6330 137° Southeast 393 452 31,000  Level FlightAware
11:06PM 20.7250 -86.5690 138° Southeast 684 787 31,000  Level FlightAware
11:07PM 20.6700 -86.5160 138° Southeast 537 618 31,000  Level FlightAware
11:08PM 20.6080 -86.4560 138° Southeast 499 574 31,000  Level FlightAware
11:08PM 20.5460 -86.3960 138° Southeast 605 696 31,000  Level FlightAware
11:10PM 20.3690 -86.2250 138° Southeast 31,000  Level FlightAware
11:11PM 20.2810 -86.1400 138° Southeast 531 611 31,000  Level FlightAware
11:11PM 20.2100 -86.0720 138° Southeast 702 808 31,000  Level FlightAware
11:14PM 20.0063 -85.8735 138° Southeast  Level FlightAware Approximate
11:15PM 19.9072 -85.7799 138° Southeast  Level FlightAware Approximate
11:15PM 19.8070 -85.6870 138° Southeast 31,000  Level FlightAware
11:16PM 19.7350 -85.6190 138° Southeast 506 582 31,000  Level FlightAware
11:18PM 19.5290 -85.4260 139° Southeast 31,000  Level FlightAware
11:19PM 19.4320 -85.3350 138° Southeast 569 655 31,000  Level FlightAware
11:21PM 19.2665 -85.1800 139° Southeast  Level FlightAware Approximate
11:22PM 19.1671 -85.0872 139° Southeast  Level FlightAware Approximate
11:23PM 19.0676 -84.9944 139° Southeast  Level FlightAware Approximate
11:24PM 18.9681 -84.9018 139° Southeast  Level FlightAware Approximate
11:25PM 18.8686 -84.8093 139° Southeast  Level FlightAware Approximate
11:26PM 18.7691 -84.7169 139° Southeast  Level FlightAware Approximate
11:27PM 18.6694 -84.6246 139° Southeast  Level FlightAware Approximate
11:28PM 18.5698 -84.5324 139° Southeast  Level FlightAware Approximate
11:29PM 18.4826 -84.4288 123° Southeast  Level FlightAware Approximate
11:30PM 18.4089 -84.3127 125° Southeast  Level FlightAware Approximate
11:31PM 18.3335 -84.1978 125° Southeast  Level FlightAware Approximate
11:32PM 18.2580 -84.0831 125° Southeast  Level FlightAware Approximate
11:33PM 18.1825 -83.9684 125° Southeast  Level FlightAware Approximate
11:34PM 18.1069 -83.8539 125° Southeast  Level FlightAware Approximate
11:35PM 18.0313 -83.7394 125° Southeast  Level FlightAware Approximate
11:36PM 17.9555 -83.6250 125° Southeast  Level FlightAware Approximate
11:37PM 17.8624 -83.5262 135° Southeast  Level FlightAware Approximate
11:38PM 17.7678 -83.4286 136° Southeast  Level FlightAware Approximate
11:39PM 17.6732 -83.3312 136° Southeast  Level FlightAware Approximate
11:40PM 17.5785 -83.2339 136° Southeast  Level FlightAware Approximate
11:41PM 17.4838 -83.1367 136° Southeast  Level FlightAware Approximate
11:42PM 17.3890 -83.0396 136° Southeast  Level FlightAware Approximate
11:43PM 17.2904 -82.9469 139° Southeast  Level FlightAware Approximate
11:44PM 17.1905 -82.8557 139° Southeast  Level FlightAware Approximate
11:45PM 17.0906 -82.7645 139° Southeast  Level FlightAware Approximate
11:46PM 16.9907 -82.6735 139° Southeast  Level FlightAware Approximate
11:47PM 16.8907 -82.5826 139° Southeast  Level FlightAware Approximate
11:48PM 16.7906 -82.4917 139° Southeast  Level FlightAware Approximate
11:49PM 16.6906 -82.4010 139° Southeast  Level FlightAware Approximate
11:50PM 16.5905 -82.3103 139° Southeast  Level FlightAware Approximate
11:51PM 16.4903 -82.2198 139° Southeast  Level FlightAware Approximate
11:52PM 16.3949 -82.1241 134° Southeast  Level FlightAware Approximate
11:53PM 16.3025 -82.0251 134° Southeast  Level FlightAware Approximate
11:54PM 16.2101 -81.9261 134° Southeast  Level FlightAware Approximate
11:55PM 16.1176 -81.8272 134° Southeast  Level FlightAware Approximate
11:56PM 16.0252 -81.7284 134° Southeast  Level FlightAware Approximate
11:57PM 15.9326 -81.6298 134° Southeast  Level FlightAware Approximate
11:58PM 15.8400 -81.5312 134° Southeast  Level FlightAware Approximate
11:59PM 15.7474 -81.4326 134° Southeast  Level FlightAware Approximate
12:00AM 15.6558 -81.3332 133° Southeast  Level FlightAware Approximate
12:01AM 15.5647 -81.2332 133° Southeast  Level FlightAware Approximate
12:02AM 15.4736 -81.1333 133° Southeast  Level FlightAware Approximate
12:03AM 15.3824 -81.0336 133° Southeast  Level FlightAware Approximate
12:04AM 15.2912 -80.9339 133° Southeast  Level FlightAware Approximate
12:05AM 15.1999 -80.8343 134° Southeast  Level FlightAware Approximate
12:06AM 15.1086 -80.7348 134° Southeast  Level FlightAware Approximate
12:07AM 15.0172 -80.6354 134° Southeast  Level FlightAware Approximate
12:08AM 14.9151 -80.5483 142° Southeast  Level FlightAware Approximate
12:09AM 14.8104 -80.4641 142° Southeast  Level FlightAware Approximate
12:10AM 14.7058 -80.3801 142° Southeast  Level FlightAware Approximate
12:11AM 14.6011 -80.2961 142° Southeast  Level FlightAware Approximate
12:12AM 14.4963 -80.2122 142° Southeast  Level FlightAware Approximate
12:13AM 14.3916 -80.1283 142° Southeast  Level FlightAware Approximate
12:14AM 14.2868 -80.0446 142° Southeast  Level FlightAware Approximate
12:15AM 14.1820 -79.9609 142° Southeast  Level FlightAware Approximate
12:16AM 14.0771 -79.8773 142° Southeast  Level FlightAware Approximate
12:17AM 13.9722 -79.7938 142° Southeast  Level FlightAware Approximate
12:18AM 13.8673 -79.7104 142° Southeast  Level FlightAware Approximate
12:19AM 13.7625 -79.6268 142° Southeast  Level FlightAware Approximate
12:20AM 13.6577 -79.5433 142° Southeast  Level FlightAware Approximate
12:21AM 13.5529 -79.4599 142° Southeast  Level FlightAware Approximate
12:22AM 13.4480 -79.3765 142° Southeast  Level FlightAware Approximate
12:23AM 13.3431 -79.2933 142° Southeast  Level FlightAware Approximate
12:24AM 13.2382 -79.2100 142° Southeast  Level FlightAware Approximate
12:25AM 13.1333 -79.1269 142° Southeast  Level FlightAware Approximate
12:26AM 13.0283 -79.0438 142° Southeast  Level FlightAware Approximate
12:27AM 12.9233 -78.9608 142° Southeast  Level FlightAware Approximate
12:28AM 12.8183 -78.8779 142° Southeast  Level FlightAware Approximate
12:29AM 12.7133 -78.7950 142° Southeast  Level FlightAware Approximate
12:30AM 12.6082 -78.7122 142° Southeast  Level FlightAware Approximate
12:31AM 12.5031 -78.6295 142° Southeast  Level FlightAware Approximate
12:32AM 12.3980 -78.5469 142° Southeast  Level FlightAware Approximate
12:33AM 12.2929 -78.4643 142° Southeast  Level FlightAware Approximate
12:34AM 12.1877 -78.3817 143° Southeast  Level FlightAware Approximate
12:35AM 12.0825 -78.2993 143° Southeast  Level FlightAware Approximate
12:36AM 11.9773 -78.2169 143° Southeast  Level FlightAware Approximate
12:37AM 11.8720 -78.1346 143° Southeast  Level FlightAware Approximate
12:38AM 11.7668 -78.0523 143° Southeast  Level FlightAware Approximate
12:39AM 11.6615 -77.9701 143° Southeast  Level FlightAware Approximate
12:40AM 11.5562 -77.8879 143° Southeast  Level FlightAware Approximate
12:41AM 11.4508 -77.8059 143° Southeast  Level FlightAware Approximate
12:42AM 11.3455 -77.7238 143° Southeast  Level FlightAware Approximate
12:42AM 10.9170 -77.3760 143° Southeast 33,000  Level FlightAware
12:43AM 11.2401 -77.6419 143° Southeast  Level FlightAware Approximate
12:43AM 10.8490 -77.3120 137° Southeast 725 834 33,000  Level FlightAware
12:44AM 10.7660 -77.2350 138° Southeast 585 673 33,000  Level FlightAware
12:46AM 10.6085 -77.0872 137° Southeast  Level FlightAware Approximate
12:46AM 10.5950 -77.0750 137° Southeast 33,000  Level FlightAware
12:46AM 10.5230 -77.0080 138° Southeast 479 551 33,000  Level FlightAware
12:47AM 10.4580 -76.9480 138° Southeast 585 673 33,000  Level FlightAware
12:47AM 10.3990 -76.8930 137° Southeast 507 583 33,000  Level FlightAware
12:48AM 10.3330 -76.8320 138° Southeast 479 551 33,000  Level FlightAware
12:49AM 10.2640 -76.7670 137° Southeast 567 652 33,000  Level FlightAware
12:49AM 10.2200 -76.7270 138° Southeast 348 400 33,000  Level FlightAware
12:50AM 10.1590 -76.6700 137° Southeast 315 362 33,000  Level FlightAware
12:51AM 10.0880 -76.6040 138° Southeast 491 565 33,000  Level FlightAware
12:51AM 10.0180 -76.5390 138° Southeast 573 659 33,000  Level FlightAware
12:52AM 9.9620 -76.4880 138° Southeast 493 567 33,000  Level FlightAware
12:52AM 9.9020 -76.4320 137° Southeast 346 398 33,000  Level FlightAware
12:53AM 9.8320 -76.3670 138° Southeast 457 526 33,000  Level FlightAware
12:54AM 9.7490 -76.2910 138° Southeast 457 526 33,000  Level FlightAware
12:55AM 9.6800 -76.2270 138° Southeast 483 556 33,000  Level FlightAware
12:55AM 9.6190 -76.1700 137° Southeast 492 566 33,000  Level FlightAware
12:56AM 9.5600 -76.1160 138° Southeast 491 565 33,000  Level FlightAware
12:56AM 9.5010 -76.0620 138° Southeast 493 567 33,000  Level FlightAware
12:57AM 9.4420 -76.0070 137° Southeast 493 567 33,000  Level FlightAware
12:57AM 9.3840 -75.9530 137° Southeast 491 565 33,000  Level FlightAware
12:58AM 9.3230 -75.8970 138° Southeast 494 568 33,000  Level FlightAware
12:59AM 9.2680 -75.8460 138° Southeast 492 566 33,000  Level FlightAware
12:59AM 9.2110 -75.7940 138° Southeast 492 566 33,000  Level FlightAware
01:00AM 9.1480 -75.7360 138° Southeast 489 563 33,000  Level FlightAware
01:01AM 9.0590 -75.6540 138° Southeast 490 564 33,000  Level FlightAware
01:01AM 9.0020 -75.6020 138° Southeast 492 566 33,000  Level FlightAware
01:02AM 8.9290 -75.5340 137° Southeast 491 565 33,000  Level FlightAware
01:03AM 8.8700 -75.4800 138° Southeast 492 566 33,000  Level FlightAware
01:03AM 8.8110 -75.4260 138° Southeast 492 566 33,000  Level FlightAware
01:04AM 8.7350 -75.3560 138° Southeast 492 566 33,000  Level FlightAware
01:04AM 8.6750 -75.3010 138° Southeast 492 566 33,000  Level FlightAware
01:05AM 8.6020 -75.2330 137° Southeast 491 565 33,000  Level FlightAware
01:06AM 8.5420 -75.1790 138° Southeast 492 566 33,000  Level FlightAware
01:06AM 8.4920 -75.1330 138° Southeast 492 566 33,000  Level FlightAware
01:07AM 8.4310 -75.0770 138° Southeast 490 564 33,000  Level FlightAware
01:08AM 8.3660 -75.0170 138° Southeast 493 567 33,000  Level FlightAware
01:08AM 8.2950 -74.9530 138° Southeast 493 567 33,000  Level FlightAware
01:09AM 8.2390 -74.9010 137° Southeast 492 566 33,000  Level FlightAware
01:09AM 8.1770 -74.8440 138° Southeast 492 566 33,000  Level FlightAware
01:10AM 8.1180 -74.7900 138° Southeast 491 565 33,000  Level FlightAware
01:10AM 8.0690 -74.7450 138° Southeast 491 565 33,000  Level FlightAware
01:11AM 8.0010 -74.6830 138° Southeast 490 564 33,000  Level FlightAware
01:12AM 7.9470 -74.6340 138° Southeast 493 567 33,000  Level FlightAware
01:12AM 7.8850 -74.5770 138° Southeast 491 565 33,000  Level FlightAware
01:13AM 7.8330 -74.5300 138° Southeast 491 565 33,000  Level FlightAware
01:13AM 7.7640 -74.4660 137° Southeast 492 566 33,000  Level FlightAware
01:14AM 7.7050 -74.4120 138° Southeast 491 565 33,000  Level FlightAware
01:15AM 7.6450 -74.3580 138° Southeast 490 564 33,000  Level FlightAware
01:15AM 7.5780 -74.2970 138° Southeast 491 565 33,000  Level FlightAware
01:16AM 7.5190 -74.2430 138° Southeast 493 567 33,000  Level FlightAware
01:17AM 7.4500 -74.1800 138° Southeast 492 566 33,000  Level FlightAware
01:17AM 7.4000 -74.1350 138° Southeast 492 566 33,000  Level FlightAware
01:18AM 7.3420 -74.0820 138° Southeast 491 565 33,000  Level FlightAware
01:19AM 7.2540 -74.0000 137° Southeast 490 564 33,000  Level FlightAware
01:19AM 7.2030 -73.9520 137° Southeast 490 564 33,000  Level FlightAware
01:20AM 7.1290 -73.8880 139° Southeast 491 565 33,000  Level FlightAware
01:20AM 7.0620 -73.8250 137° Southeast 490 564 33,000  Level FlightAware
01:21AM 7.0130 -73.7770 136° Southeast 490 564 33,000  Level FlightAware
01:21AM 6.9670 -73.7650 165° South 492 566 33,000  Level FlightAware
01:22AM 6.8840 -73.7200 152° Southeast 491 565 33,000  Level FlightAware
01:23AM 6.7960 -73.6720 152° Southeast 619 712 33,000  Level FlightAware
01:23AM 6.7270 -73.6350 152° Southeast 528 608 33,000  Level FlightAware
01:24AM 6.6590 -73.5980 152° Southeast 417 480 33,000  Level FlightAware
01:24AM 6.5890 -73.5600 152° Southeast 394 453 33,000  Level FlightAware
01:25AM 6.5140 -73.5200 152° Southeast 535 616 33,000  Level FlightAware
01:26AM 6.4440 -73.4820 152° Southeast 510 587 33,000  Level FlightAware
01:26AM 6.3760 -73.4450 152° Southeast 393 452 33,000  Level FlightAware
01:27AM 6.3080 -73.4090 152° Southeast 387 445 33,000  Level FlightAware
01:27AM 6.2340 -73.3690 152° Southeast 542 624 33,000  Level FlightAware
01:28AM 6.1630 -73.3310 152° Southeast 566 651 33,000  Level FlightAware
01:30AM 5.9758 -73.2300 152° Southeast  Level FlightAware Approximate
01:31AM 5.8588 -73.1670 152° Southeast  Level FlightAware Approximate
01:32AM 5.7417 -73.1040 152° Southeast  Level FlightAware Approximate
01:33AM 5.6247 -73.0409 152° Southeast  Level FlightAware Approximate
01:33AM 5.5610 -73.0070 152° Southeast 33,000  Level FlightAware
01:33AM 5.5160 -72.9840 153° Southeast 547 629 33,000  Level FlightAware
01:34AM 5.4490 -72.9470 151° Southeast 365 420 33,000  Level FlightAware
01:35AM 5.3750 -72.9080 152° Southeast 588 677 33,000  Level FlightAware
01:35AM 5.3030 -72.8700 152° Southeast 603 694 33,000  Level FlightAware
01:36AM 5.2420 -72.8350 150° Southeast 411 473 33,000  Level FlightAware
01:36AM 5.2000 -72.7990 140° Southeast 530 610 33,000  Level FlightAware
01:39AM 4.9119 -72.6474 152° Southeast  Level FlightAware Approximate
01:40AM 4.7943 -72.5855 152° Southeast  Level FlightAware Approximate
01:41AM 4.6767 -72.5237 152° Southeast  Level FlightAware Approximate
01:42AM 4.5591 -72.4619 152° Southeast  Level FlightAware Approximate
01:43AM 4.4415 -72.4001 152° Southeast  Level FlightAware Approximate
01:44AM 4.3239 -72.3383 152° Southeast  Level FlightAware Approximate
01:45AM 4.2063 -72.2765 152° Southeast  Level FlightAware Approximate
01:46AM 4.0886 -72.2148 152° Southeast  Level FlightAware Approximate
01:47AM 3.9710 -72.1531 152° Southeast  Level FlightAware Approximate
01:48AM 3.8597 -72.0814 145° Southeast  Level FlightAware Approximate
01:49AM 3.7511 -72.0048 145° Southeast  Level FlightAware Approximate
01:50AM 3.6426 -71.9282 145° Southeast  Level FlightAware Approximate
01:51AM 3.5340 -71.8516 145° Southeast  Level FlightAware Approximate
01:52AM 3.4254 -71.7750 145° Southeast  Level FlightAware Approximate
01:53AM 3.3168 -71.6985 145° Southeast  Level FlightAware Approximate
01:54AM 3.2082 -71.6220 145° Southeast  Level FlightAware Approximate
01:55AM 3.0996 -71.5455 145° Southeast  Level FlightAware Approximate
01:56AM 2.9910 -71.4690 145° Southeast  Level FlightAware Approximate
01:57AM 2.8824 -71.3926 145° Southeast  Level FlightAware Approximate
01:58AM 2.7738 -71.3161 145° Southeast  Level FlightAware Approximate
01:59AM 2.6652 -71.2397 145° Southeast  Level FlightAware Approximate
02:00AM 2.5566 -71.1633 145° Southeast  Level FlightAware Approximate
02:01AM 2.4479 -71.0868 145° Southeast  Level FlightAware Approximate
02:02AM 2.3393 -71.0104 145° Southeast  Level FlightAware Approximate
02:03AM 2.2307 -70.9341 145° Southeast  Level FlightAware Approximate
02:04AM 2.1220 -70.8577 145° Southeast  Level FlightAware Approximate
02:05AM 2.0134 -70.7813 145° Southeast  Level FlightAware Approximate
02:06AM 1.9047 -70.7049 145° Southeast  Level FlightAware Approximate
02:07AM 1.7961 -70.6286 145° Southeast  Level FlightAware Approximate
02:08AM 1.6874 -70.5523 145° Southeast  Level FlightAware Approximate
02:09AM 1.5788 -70.4759 145° Southeast  Level FlightAware Approximate
02:10AM 1.4701 -70.3996 145° Southeast  Level FlightAware Approximate
02:11AM 1.3614 -70.3233 145° Southeast  Level FlightAware Approximate
02:12AM 1.2528 -70.2470 145° Southeast  Level FlightAware Approximate
02:13AM 1.1521 -70.1610 138° Southeast  Level FlightAware Approximate
02:14AM 1.0531 -70.0729 138° Southeast  Level FlightAware Approximate
02:15AM 0.9541 -69.9848 138° Southeast  Level FlightAware Approximate
02:16AM 0.8551 -69.8967 138° Southeast  Level FlightAware Approximate
02:17AM 0.7560 -69.8085 138° Southeast  Level FlightAware Approximate
02:18AM 0.6570 -69.7205 138° Southeast  Level FlightAware Approximate
02:19AM 0.5580 -69.6323 138° Southeast  Level FlightAware Approximate
02:20AM 0.4590 -69.5443 138° Southeast  Level FlightAware Approximate
02:21AM 0.3600 -69.4561 138° Southeast  Level FlightAware Approximate
02:22AM 0.2610 -69.3681 138° Southeast  Level FlightAware Approximate
02:23AM 0.1619 -69.2800 138° Southeast  Level FlightAware Approximate
02:24AM 0.0629 -69.1919 138° Southeast  Level FlightAware Approximate
02:25AM -0.0361 -69.1038 138° Southeast  Level FlightAware Approximate
02:26AM -0.1351 -69.0157 138° Southeast  Level FlightAware Approximate
02:27AM -0.2341 -68.9276 138° Southeast  Level FlightAware Approximate
02:28AM -0.3332 -68.8395 138° Southeast  Level FlightAware Approximate
02:29AM -0.4322 -68.7514 138° Southeast  Level FlightAware Approximate
02:30AM -0.5312 -68.6633 138° Southeast  Level FlightAware Approximate
02:31AM -0.6302 -68.5752 138° Southeast  Level FlightAware Approximate
02:32AM -0.7292 -68.4871 138° Southeast  Level FlightAware Approximate
02:33AM -0.8282 -68.3990 138° Southeast  Level FlightAware Approximate
02:34AM -0.9273 -68.3109 138° Southeast  Level FlightAware Approximate
02:35AM -1.0263 -68.2228 138° Southeast  Level FlightAware Approximate
02:36AM -1.1253 -68.1347 138° Southeast  Level FlightAware Approximate
02:37AM -1.2243 -68.0465 138° Southeast  Level FlightAware Approximate
02:38AM -1.3233 -67.9584 138° Southeast  Level FlightAware Approximate
02:39AM -1.4223 -67.8702 138° Southeast  Level FlightAware Approximate
02:40AM -1.5213 -67.7821 138° Southeast  Level FlightAware Approximate
02:41AM -1.6202 -67.6939 138° Southeast  Level FlightAware Approximate
02:42AM -1.7192 -67.6058 138° Southeast  Level FlightAware Approximate
02:43AM -1.8182 -67.5176 138° Southeast  Level FlightAware Approximate
02:44AM -1.9172 -67.4294 138° Southeast  Level FlightAware Approximate
02:45AM -2.0162 -67.3412 138° Southeast  Level FlightAware Approximate
02:46AM -2.1151 -67.2530 138° Southeast  Level FlightAware Approximate
02:47AM -2.2141 -67.1648 138° Southeast  Level FlightAware Approximate
02:48AM -2.3131 -67.0765 138° Southeast  Level FlightAware Approximate
02:49AM -2.4120 -66.9883 138° Southeast  Level FlightAware Approximate
02:50AM -2.5110 -66.9000 138° Southeast  Level FlightAware Approximate
02:51AM -2.6099 -66.8118 138° Southeast  Level FlightAware Approximate
02:52AM -2.7088 -66.7235 138° Southeast  Level FlightAware Approximate
02:53AM -2.8078 -66.6352 138° Southeast  Level FlightAware Approximate
02:54AM -2.9067 -66.5469 138° Southeast  Level FlightAware Approximate
02:55AM -3.0056 -66.4586 138° Southeast  Level FlightAware Approximate
02:56AM -3.1045 -66.3702 138° Southeast  Level FlightAware Approximate
02:57AM -3.2034 -66.2819 138° Southeast  Level FlightAware Approximate
02:58AM -3.3023 -66.1935 138° Southeast  Level FlightAware Approximate
02:59AM -3.4012 -66.1051 138° Southeast  Level FlightAware Approximate
03:00AM -3.5001 -66.0167 138° Southeast  Level FlightAware Approximate
03:01AM -3.5989 -65.9283 138° Southeast  Level FlightAware Approximate
03:02AM -3.6978 -65.8398 138° Southeast  Level FlightAware Approximate
03:03AM -3.7967 -65.7513 138° Southeast  Level FlightAware Approximate
03:04AM -3.8955 -65.6628 138° Southeast  Level FlightAware Approximate
03:05AM -3.9943 -65.5743 138° Southeast  Level FlightAware Approximate
03:06AM -4.0932 -65.4858 138° Southeast  Level FlightAware Approximate
03:07AM -4.1920 -65.3972 138° Southeast  Level FlightAware Approximate
03:08AM -4.2908 -65.3087 138° Southeast  Level FlightAware Approximate
03:09AM -4.3896 -65.2201 138° Southeast  Level FlightAware Approximate
03:10AM -4.4883 -65.1314 138° Southeast  Level FlightAware Approximate
03:11AM -4.5871 -65.0428 138° Southeast  Level FlightAware Approximate
03:12AM -4.6859 -64.9541 138° Southeast  Level FlightAware Approximate
03:13AM -4.7846 -64.8654 138° Southeast  Level FlightAware Approximate
03:14AM -4.8833 -64.7767 138° Southeast  Level FlightAware Approximate
03:15AM -4.9821 -64.6880 138° Southeast  Level FlightAware Approximate
03:16AM -5.0808 -64.5992 138° Southeast  Level FlightAware Approximate
03:17AM -5.1795 -64.5104 138° Southeast  Level FlightAware Approximate
03:18AM -5.2782 -64.4216 138° Southeast  Level FlightAware Approximate
03:19AM -5.3769 -64.3327 138° Southeast  Level FlightAware Approximate
03:20AM -5.4755 -64.2438 138° Southeast  Level FlightAware Approximate
03:21AM -5.5742 -64.1549 138° Southeast  Level FlightAware Approximate
03:22AM -5.6728 -64.0659 138° Southeast  Level FlightAware Approximate
03:23AM -5.7715 -63.9770 138° Southeast  Level FlightAware Approximate
03:24AM -5.8701 -63.8880 138° Southeast  Level FlightAware Approximate
03:25AM -5.9687 -63.7989 138° Southeast  Level FlightAware Approximate
03:26AM -6.0672 -63.7098 138° Southeast  Level FlightAware Approximate
03:27AM -6.1658 -63.6207 138° Southeast  Level FlightAware Approximate
03:28AM -6.2644 -63.5316 138° Southeast  Level FlightAware Approximate
03:29AM -6.3629 -63.4424 138° Southeast  Level FlightAware Approximate
03:30AM -6.4614 -63.3532 138° Southeast  Level FlightAware Approximate
03:31AM -6.5599 -63.2640 138° Southeast  Level FlightAware Approximate
03:32AM -6.6584 -63.1747 138° Southeast  Level FlightAware Approximate
03:33AM -6.7569 -63.0854 138° Southeast  Level FlightAware Approximate
03:34AM -6.8554 -62.9961 138° Southeast  Level FlightAware Approximate
03:35AM -6.9538 -62.9067 138° Southeast  Level FlightAware Approximate
03:36AM -7.0522 -62.8173 138° Southeast  Level FlightAware Approximate
03:37AM -7.1507 -62.7278 138° Southeast  Level FlightAware Approximate
03:38AM -7.2490 -62.6383 138° Southeast  Level FlightAware Approximate
03:39AM -7.3474 -62.5488 138° Southeast  Level FlightAware Approximate
03:40AM -7.4458 -62.4592 138° Southeast  Level FlightAware Approximate
03:41AM -7.5441 -62.3696 138° Southeast  Level FlightAware Approximate
03:42AM -7.6424 -62.2799 138° Southeast  Level FlightAware Approximate
03:43AM -7.7407 -62.1902 138° Southeast  Level FlightAware Approximate
03:44AM -7.8390 -62.1005 138° Southeast  Level FlightAware Approximate
03:45AM -7.9373 -62.0107 138° Southeast  Level FlightAware Approximate
03:46AM -8.0355 -61.9208 138° Southeast  Level FlightAware Approximate
03:47AM -8.1337 -61.8310 138° Southeast  Level FlightAware Approximate
03:48AM -8.2320 -61.7411 138° Southeast  Level FlightAware Approximate
03:49AM -8.3301 -61.6511 138° Southeast  Level FlightAware Approximate
03:50AM -8.4283 -61.5611 138° Southeast  Level FlightAware Approximate
03:51AM -8.5265 -61.4711 138° Southeast  Level FlightAware Approximate
03:52AM -8.6246 -61.3810 138° Southeast  Level FlightAware Approximate
03:53AM -8.7227 -61.2908 138° Southeast  Level FlightAware Approximate
03:54AM -8.8208 -61.2006 138° Southeast  Level FlightAware Approximate
03:55AM -8.9188 -61.1104 138° Southeast  Level FlightAware Approximate
03:56AM -9.0169 -61.0201 138° Southeast  Level FlightAware Approximate
03:57AM -9.1149 -60.9298 138° Southeast  Level FlightAware Approximate
03:58AM -9.2129 -60.8394 138° Southeast  Level FlightAware Approximate
03:59AM -9.3109 -60.7490 138° Southeast  Level FlightAware Approximate
04:00AM -9.4088 -60.6585 138° Southeast  Level FlightAware Approximate
04:01AM -9.5067 -60.5680 138° Southeast  Level FlightAware Approximate
04:02AM -9.6046 -60.4774 138° Southeast  Level FlightAware Approximate
04:03AM -9.7025 -60.3867 138° Southeast  Level FlightAware Approximate
04:04AM -9.8004 -60.2960 138° Southeast  Level FlightAware Approximate
04:05AM -9.8982 -60.2053 138° Southeast  Level FlightAware Approximate
04:06AM -9.9960 -60.1145 138° Southeast  Level FlightAware Approximate
04:07AM -10.0938 -60.0236 138° Southeast  Level FlightAware Approximate
04:08AM -10.1916 -59.9327 138° Southeast  Level FlightAware Approximate
04:09AM -10.2893 -59.8417 138° Southeast  Level FlightAware Approximate
04:10AM -10.3870 -59.7507 138° Southeast  Level FlightAware Approximate
04:11AM -10.4847 -59.6596 137° Southeast  Level FlightAware Approximate
04:12AM -10.5823 -59.5685 137° Southeast  Level FlightAware Approximate
04:13AM -10.6800 -59.4773 137° Southeast  Level FlightAware Approximate
04:14AM -10.7776 -59.3861 137° Southeast  Level FlightAware Approximate
04:15AM -10.8751 -59.2947 137° Southeast  Level FlightAware Approximate
04:16AM -10.9727 -59.2034 137° Southeast  Level FlightAware Approximate
04:17AM -11.0702 -59.1119 137° Southeast  Level FlightAware Approximate
04:18AM -11.1677 -59.0205 137° Southeast  Level FlightAware Approximate
04:19AM -11.2652 -58.9289 137° Southeast  Level FlightAware Approximate
04:20AM -11.3626 -58.8373 137° Southeast  Level FlightAware Approximate
04:21AM -11.4600 -58.7456 137° Southeast  Level FlightAware Approximate
04:22AM -11.5574 -58.6539 137° Southeast  Level FlightAware Approximate
04:23AM -11.6547 -58.5620 137° Southeast  Level FlightAware Approximate
04:24AM -11.7521 -58.4702 137° Southeast  Level FlightAware Approximate
04:25AM -11.8494 -58.3782 137° Southeast  Level FlightAware Approximate
04:26AM -11.9466 -58.2862 137° Southeast  Level FlightAware Approximate
04:27AM -12.0438 -58.1942 137° Southeast  Level FlightAware Approximate
04:28AM -12.1411 -58.1020 137° Southeast  Level FlightAware Approximate
04:29AM -12.2382 -58.0098 137° Southeast  Level FlightAware Approximate
04:30AM -12.3354 -57.9176 137° Southeast  Level FlightAware Approximate
04:31AM -12.4325 -57.8252 137° Southeast  Level FlightAware Approximate
04:32AM -12.5295 -57.7328 137° Southeast  Level FlightAware Approximate
04:33AM -12.6266 -57.6403 137° Southeast  Level FlightAware Approximate
04:34AM -12.7236 -57.5478 137° Southeast  Level FlightAware Approximate
04:35AM -12.8206 -57.4552 137° Southeast  Level FlightAware Approximate
04:36AM -12.9176 -57.3625 137° Southeast  Level FlightAware Approximate
04:37AM -13.0145 -57.2697 137° Southeast  Level FlightAware Approximate
04:38AM -13.1114 -57.1769 137° Southeast  Level FlightAware Approximate
04:39AM -13.2082 -57.0840 137° Southeast  Level FlightAware Approximate
04:40AM -13.3050 -56.9910 137° Southeast  Level FlightAware Approximate
04:41AM -13.4018 -56.8979 137° Southeast  Level FlightAware Approximate
04:42AM -13.4986 -56.8048 137° Southeast  Level FlightAware Approximate
04:43AM -13.5953 -56.7116 137° Southeast  Level FlightAware Approximate
04:44AM -13.6920 -56.6183 137° Southeast  Level FlightAware Approximate
04:45AM -13.7886 -56.5250 137° Southeast  Level FlightAware Approximate
04:46AM -13.8852 -56.4315 137° Southeast  Level FlightAware Approximate
04:47AM -13.9818 -56.3380 137° Southeast  Level FlightAware Approximate
04:48AM -14.0784 -56.2444 137° Southeast  Level FlightAware Approximate
04:49AM -14.1749 -56.1507 137° Southeast  Level FlightAware Approximate
04:50AM -14.2713 -56.0570 137° Southeast  Level FlightAware Approximate
04:51AM -14.3678 -55.9632 137° Southeast  Level FlightAware Approximate
04:52AM -14.4642 -55.8693 137° Southeast  Level FlightAware Approximate
04:53AM -14.5605 -55.7753 137° Southeast  Level FlightAware Approximate
04:54AM -14.6568 -55.6812 137° Southeast  Level FlightAware Approximate
04:55AM -14.7531 -55.5870 137° Southeast  Level FlightAware Approximate
04:56AM -14.8494 -55.4928 137° Southeast  Level FlightAware Approximate
04:57AM -14.9456 -55.3985 137° Southeast  Level FlightAware Approximate
04:58AM -15.0418 -55.3041 137° Southeast  Level FlightAware Approximate
04:59AM -15.1379 -55.2095 137° Southeast  Level FlightAware Approximate
05:00AM -15.2340 -55.1150 136° Southeast  Level FlightAware Approximate
05:01AM -15.3300 -55.0203 136° Southeast  Level FlightAware Approximate
05:02AM -15.4260 -54.9255 136° Southeast  Level FlightAware Approximate
05:03AM -15.5220 -54.8307 136° Southeast  Level FlightAware Approximate
05:04AM -15.6179 -54.7358 136° Southeast  Level FlightAware Approximate
05:05AM -15.7138 -54.6408 136° Southeast  Level FlightAware Approximate
05:06AM -15.8097 -54.5457 136° Southeast  Level FlightAware Approximate
05:07AM -15.9055 -54.4505 136° Southeast  Level FlightAware Approximate
05:08AM -16.0012 -54.3552 136° Southeast  Level FlightAware Approximate
05:09AM -16.0970 -54.2598 136° Southeast  Level FlightAware Approximate
05:10AM -16.1926 -54.1643 136° Southeast  Level FlightAware Approximate
05:11AM -16.2883 -54.0687 136° Southeast  Level FlightAware Approximate
05:12AM -16.3839 -53.9731 136° Southeast  Level FlightAware Approximate
05:13AM -16.4794 -53.8773 136° Southeast  Level FlightAware Approximate
05:14AM -16.5749 -53.7815 136° Southeast  Level FlightAware Approximate
05:15AM -16.6704 -53.6855 136° Southeast  Level FlightAware Approximate
05:16AM -16.7658 -53.5895 136° Southeast  Level FlightAware Approximate
05:17AM -16.8612 -53.4934 136° Southeast  Level FlightAware Approximate
05:18AM -16.9565 -53.3971 136° Southeast  Level FlightAware Approximate
05:19AM -17.0518 -53.3008 136° Southeast  Level FlightAware Approximate
05:20AM -17.1470 -53.2044 136° Southeast  Level FlightAware Approximate
05:21AM -17.2422 -53.1078 136° Southeast  Level FlightAware Approximate
05:22AM -17.3374 -53.0112 136° Southeast  Level FlightAware Approximate
05:23AM -17.4325 -52.9145 136° Southeast  Level FlightAware Approximate
05:24AM -17.5275 -52.8177 136° Southeast  Level FlightAware Approximate
05:25AM -17.6225 -52.7207 136° Southeast  Level FlightAware Approximate
05:26AM -17.7175 -52.6237 136° Southeast  Level FlightAware Approximate
05:27AM -17.8124 -52.5266 136° Southeast  Level FlightAware Approximate
05:28AM -17.9073 -52.4293 136° Southeast  Level FlightAware Approximate
05:29AM -18.0021 -52.3320 136° Southeast  Level FlightAware Approximate
05:30AM -18.0969 -52.2345 136° Southeast  Level FlightAware Approximate
05:31AM -18.1916 -52.1370 136° Southeast  Level FlightAware Approximate
05:32AM -18.2862 -52.0393 136° Southeast  Level FlightAware Approximate
05:33AM -18.3809 -51.9416 136° Southeast  Level FlightAware Approximate
05:34AM -18.4754 -51.8437 136° Southeast  Level FlightAware Approximate
05:35AM -18.5700 -51.7457 136° Southeast  Level FlightAware Approximate
05:35AM -19.0420 -50.6200 136° Southeast 37,000  Level FlightAware
05:35AM -19.0750 -50.5840 134° Southeast 489 563 37,000  Level FlightAware
05:35AM -19.1330 -50.5200 134° Southeast 458 527 37,000  Level FlightAware
05:36AM -19.1910 -50.4570 134° Southeast 542 624 37,000  Level FlightAware
05:37AM -19.2470 -50.3960 134° Southeast 616 709 37,000  Level FlightAware
05:37AM -19.3060 -50.3310 134° Southeast 595 685 37,000  Level FlightAware
05:38AM -19.3590 -50.2730 134° Southeast 425 489 37,000  Level FlightAware
05:38AM -19.4180 -50.2090 134° Southeast 414 476 37,000  Level FlightAware
05:39AM -19.4750 -50.1450 133° Southeast 647 745 37,000  Level FlightAware
05:40AM -19.5520 -50.0610 134° Southeast 488 562 37,000  Level FlightAware
05:40AM -19.6040 -50.0040 134° Southeast 393 452 37,000  Level FlightAware
05:41AM -19.6630 -49.9390 134° Southeast 436 502 37,000  Level FlightAware
05:42AM -19.7210 -49.8760 134° Southeast 530 610 37,000  Level FlightAware
05:42AM -19.7790 -49.8130 134° Southeast 562 647 37,000  Level FlightAware
05:43AM -19.8290 -49.7570 134° Southeast 456 525 37,000  Level FlightAware
05:43AM -19.9010 -49.6790 134° Southeast 583 671 37,000  Level FlightAware
05:44AM -19.9570 -49.6180 134° Southeast 593 682 37,000  Level FlightAware
05:45AM -20.0220 -49.5460 134° Southeast 627 722 37,000  Level FlightAware
05:45AM -20.0830 -49.4790 134° Southeast 544 626 37,000  Level FlightAware
05:46AM -20.1330 -49.4240 134° Southeast 376 433 37,000  Level FlightAware
05:46AM -20.1930 -49.3580 134° Southeast 543 625 37,000  Level FlightAware
05:47AM -20.2510 -49.2940 134° Southeast 494 568 37,000  Level FlightAware
05:48AM -20.3090 -49.2300 134° Southeast 563 648 37,000  Level FlightAware
05:48AM -20.3580 -49.1760 134° Southeast 487 560 37,000  Level FlightAware
05:49AM -20.4280 -49.0990 134° Southeast 474 545 37,000  Level FlightAware
05:49AM -20.4830 -49.0420 136° Southeast 487 560 37,000  Level FlightAware
05:50AM -20.5490 -48.9780 138° Southeast 545 627 37,000  Level FlightAware
05:51AM -20.6070 -48.9250 139° Southeast 489 563 37,000  Level FlightAware
05:51AM -20.6700 -48.8670 139° Southeast 564 649 37,000  Level FlightAware
05:52AM -20.7320 -48.8110 140° Southeast 595 685 37,000  Level FlightAware
05:52AM -20.7890 -48.7600 140° Southeast 437 503 37,000  Level FlightAware
05:53AM -20.8480 -48.7050 139° Southeast 371 427 37,000  Level FlightAware
05:54AM -20.9140 -48.6460 140° Southeast 585 673 37,000  Level FlightAware
05:54AM -20.9710 -48.5930 139° Southeast 446 513 37,000  Level FlightAware
05:55AM -21.0310 -48.5380 139° Southeast 412 474 37,000  Level FlightAware
05:55AM -21.0950 -48.4790 139° Southeast 526 605 37,000  Level FlightAware
05:56AM -21.1590 -48.4190 139° Southeast 679 781 37,000  Level FlightAware
05:56AM -21.2150 -48.3680 140° Southeast 456 525 37,000  Level FlightAware
05:57AM -21.2790 -48.3090 139° Southeast 435 501 37,000  Level FlightAware
05:58AM -21.3450 -48.2470 139° Southeast 662 762 37,000  Level FlightAware
05:58AM -21.3960 -48.2000 139° Southeast 446 513 37,000  Level FlightAware
05:59AM -21.4650 -48.1360 139° Southeast 446 513 37,000  Level FlightAware
05:59AM -21.5180 -48.0870 139° Southeast 307 353 37,000  Level FlightAware
06:00AM -21.5870 -48.0220 139° Southeast 539 620 37,000  Level FlightAware
06:01AM -21.6500 -47.9640 139° Southeast 606 697 37,000 -180 Level FlightAware
06:01AM -21.7070 -47.9100 139° Southeast 455 524 36,800 -1,260 Descending FlightAware
06:02AM -21.7700 -47.8510 139° Southeast 534 615 35,600 -1,980 Descending FlightAware
06:02AM -21.8330 -47.7920 139° Southeast 572 658 34,400 -2,040 Descending FlightAware
06:03AM -21.8860 -47.7420 139° Southeast 444 511 33,300 -2,100 Descending FlightAware
06:04AM -21.9510 -47.6820 139° Southeast 583 671 32,000 -2,040 Descending FlightAware
06:04AM -22.0070 -47.6290 139° Southeast 474 545 30,900 -1,920 Descending FlightAware
06:05AM -22.0650 -47.5740 139° Southeast 444 511 29,800 -1,920 Descending FlightAware
06:05AM -22.1190 -47.5230 139° Southeast 454 522 28,700 -1,860 Descending FlightAware
06:06AM -22.1770 -47.4680 139° Southeast 475 547 27,600 -1,860 Descending FlightAware
06:06AM -22.2330 -47.4150 139° Southeast 464 534 26,500 -1,800 Descending FlightAware
06:07AM -22.2800 -47.3710 139° Southeast 444 511 25,600 -1,800 Descending FlightAware
06:08AM -22.3360 -47.3190 139° Southeast 553 636 24,500 -1,800 Descending FlightAware
06:08AM -22.3900 -47.2670 138° Southeast 475 547 23,500 -1,800 Descending FlightAware
06:09AM -22.4430 -47.2170 139° Southeast 496 571 22,400 -1,800 Descending FlightAware
06:09AM -22.4890 -47.1720 138° Southeast 358 412 21,500 -1,740 Descending FlightAware
06:10AM -22.5330 -47.1310 139° Southeast 306 352 20,600 -1,800 Descending FlightAware
06:10AM -22.5730 -47.1000 144° Southeast 446 513 19,800 -1,800 Descending FlightAware
06:11AM -22.6250 -47.0760 157° South 417 480 18,900 -1,560 Descending FlightAware
06:12AM -22.7010 -47.0440 159° South 375 432 17,700 -1,620 Descending FlightAware
06:12AM -22.7580 -47.0200 159° South 278 320 16,700 -1,680 Descending FlightAware
06:13AM -22.8190 -46.9940 159° South 358 412 15,700 -1,200 Descending FlightAware
06:13AM -22.8660 -46.9740 159° South 282 325 15,300 -1,020 Descending FlightAware
06:14AM -22.9130 -46.9540 159° South 228 262 14,600 -1,320 Descending FlightAware
06:15AM -22.9630 -46.9320 158° South 278 320 13,700 -1,620 Descending FlightAware
06:15AM -23.0040 -46.9150 159° South 358 412 12,600 -1,560 Descending FlightAware
06:16AM -23.0400 -46.8990 158° South 184 212 12,000 -1,140 Descending FlightAware
06:16AM -23.0810 -46.8820 159° South 184 212 11,400 -1,260 Descending FlightAware
06:17AM -23.1210 -46.8650 159° South 187 215 10,600 -1,320 Descending FlightAware
06:17AM -23.1560 -46.8500 158° South 303 349 10,000 -1,200 Descending FlightAware
06:18AM -23.1770 -46.8410 158° South 199 229 9,600 -1,380 Descending FlightAware
06:18AM -23.1940 -46.8330 157° South 267 307 9,200 -1,380 Descending FlightAware
06:18AM -23.2150 -46.8200 150° Southeast 285 328 8,800 -1,080 Descending FlightAware
06:19AM -23.2340 -46.8080 150° Southeast 168 193 8,500 -1,080 Descending FlightAware
06:19AM -23.2550 -46.7950 150° Southeast 349 402 8,100 -1,200 Descending FlightAware
06:19AM -23.2760 -46.7830 152° Southeast 245 282 7,700 -1,200 Descending FlightAware
06:20AM -23.2980 -46.7700 152° Southeast 307 353 7,300 -1,200 Descending FlightAware
06:20AM -23.3130 -46.7620 154° Southeast 241 277 7,000 -1,200 Descending FlightAware
06:20AM -23.3350 -46.7490 152° Southeast 258 297 6,600 -1,080 Descending FlightAware
06:21AM -23.3560 -46.7370 152° Southeast 300 345 6,300 -900 Descending FlightAware
06:21AM -23.3780 -46.7250 153° Southeast 254 292 6,000 -840 Descending FlightAware
06:21AM -23.3870 -46.7190 149° Southeast 152 175 5,900 -900 Descending FlightAware
06:21AM -23.4130 -46.7040 152° Southeast 279 321 5,500 -960 Descending FlightAware
06:22AM -23.4330 -46.6900 147° Southeast 301 346 5,200 -600 Descending FlightAware
06:22AM -23.4400 -46.6810 130° Southeast 323 372 5,200 300 Level FlightAware
06:22AM -23.4450 -46.6710 119° Southeast 162 186 5,300 180 Climbing FlightAware
06:22AM -23.4530 -46.6530 116° Southeast 142 163 5,300 -180 Level FlightAware
06:23AM -23.4600 -46.6370 116° Southeast 123 142 5,200 -360 Descending FlightAware
06:23AM -23.4640 -46.6260 112° Southeast 157 181 5,100 -600 Descending FlightAware
06:23AM -23.4640 -46.6210 90° East 115 132 5,000 -1,200 Descending FlightAware
06:24AM -23.4600 -46.6020 77° East 184 212 4,500 -1,080 Descending FlightAware
06:24AM -23.4570 -46.5880 77° East 156 180 4,200 -900 Descending FlightAware
06:24AM -23.4530 -46.5740 73° East 97 112 3,900 -900 Descending FlightAware
06:25AM -23.4490 -46.5600 73° East 104 120 3,600 -840 Descending FlightAware
06:25AM -23.4450 -46.5430 76° East 163 188 3,300 -720 Descending FlightAware
06:25AM -23.4410 -46.5290 73° East 163 188 3,100 -780 Descending FlightAware
06:26AM -23.4380 -46.5140 78° East 159 183 2,800 -900 Descending FlightAware
06:26AM -23.4340 -46.4990 74° East 163 188 2,500 -840 Descending FlightAware
06:26AM -23.4290 -46.4810 73° East 194 223 2,200 -720 Descending FlightAware
06:27AM -23.4270 -46.4730 75° East 120 138 -8,280 Descending FlightAware
06:27AM -23.4230 -46.4590 73° East 96 110  Level FlightAware